sensor_id;sensor_type;location;lat;lon;timestamp;P1;durP1;ratioP1;P2;durP2;ratioP2
16426;SDS011;8322;-33.900;151.170;2022-09-12T00:01:39;2.30;;;1.00;;
16426;SDS011;8322;-33.900;151.170;2022-09-12T00:04:08;0.60;;;0.60;;
16426;SDS011;8322;-33.900;151.170;2022-09-12T00:06:40;3.00;;;1.17;;
16426;SDS011;8322;-33.900;151.170;2022-09-12T00:09:11;3.13;;;1.10;;
16426;SDS011;8322;-33.900;151.170;2022-09-12T00:11:42;0.90;;;0.70;;
16426;SDS011;8322;-33.900;151.170;2022-09-12T00:14:13;0.93;;;0.82;;
16426;SDS011;8322;-33.900;151.170;2022-09-12T00:16:43;1.30;;;0.77;;
16426;SDS011;8322;-33.900;151.170;2022-09-12T00:19:13;1.42;;;1.00;;
16426;SDS011;8322;-33.900;151.170;2022-09-12T00:21:45;2.72;;;0.70;;
16426;SDS011;8322;-33.900;151.170;2022-09-12T00:24:15;1.80;;;0.75;;
16426;SDS011;8322;-33.900;151.170;2022-09-12T00:26:45;2.17;;;1.00;;
16426;SDS011;8322;-33.900;151.170;2022-09-12T00:29:15;1.17;;;0.60;;
16426;SDS011;8322;-33.900;151.170;2022-09-12T00:31:45;5.30;;;1.00;;
16426;SDS011;8322;-33.900;151.170;2022-09-12T00:34:15;3.83;;;0.70;;
16426;SDS011;8322;-33.900;151.170;2022-09-12T00:36:46;1.40;;;1.10;;
16426;SDS011;8322;-33.900;151.170;2022-09-12T00:39:16;1.23;;;0.88;;
16426;SDS011;8322;-33.900;151.170;2022-09-12T00:41:46;1.75;;;1.20;;
16426;SDS011;8322;-33.900;151.170;2022-09-12T00:47:03;0.80;;;0.65;;
16426;SDS011;8322;-33.900;151.170;2022-09-12T00:49:35;3.55;;;0.82;;
16426;SDS011;8322;-33.900;151.170;2022-09-12T00:52:09;1.40;;;0.57;;
16426;SDS011;8322;-33.900;151.170;2022-09-12T00:54:39;3.78;;;0.90;;
16426;SDS011;8322;-33.900;151.170;2022-09-12T00:57:11;1.90;;;0.70;;
16426;SDS011;8322;-33.900;151.170;2022-09-12T00:59:43;2.15;;;0.65;;
16426;SDS011;8322;-33.900;151.170;2022-09-12T01:02:15;0.90;;;0.52;;
16426;SDS011;8322;-33.900;151.170;2022-09-12T01:04:45;1.20;;;0.60;;
16426;SDS011;8322;-33.900;151.170;2022-09-12T01:07:16;1.45;;;0.70;;
16426;SDS011;8322;-33.900;151.170;2022-09-12T01:09:46;1.95;;;0.60;;
16426;SDS011;8322;-33.900;151.170;2022-09-12T01:12:16;1.15;;;0.40;;
16426;SDS011;8322;-33.900;151.170;2022-09-12T01:14:46;2.13;;;0.80;;
16426;SDS011;8322;-33.900;151.170;2022-09-12T01:17:16;2.72;;;0.80;;
16426;SDS011;8322;-33.900;151.170;2022-09-12T01:22:48;4.05;;;0.90;;
16426;SDS011;8322;-33.900;151.170;2022-09-12T01:25:23;1.45;;;0.68;;
16426;SDS011;8322;-33.900;151.170;2022-09-12T01:28:03;0.68;;;0.60;;
16426;SDS011;8322;-33.900;151.170;2022-09-12T01:30:45;0.50;;;0.50;;
16426;SDS011;8322;-33.900;151.170;2022-09-12T01:36:10;1.20;;;0.75;;
16426;SDS011;8322;-33.900;151.170;2022-09-12T01:38:45;2.00;;;0.90;;
16426;SDS011;8322;-33.900;151.170;2022-09-12T01:41:17;3.05;;;1.20;;
16426;SDS011;8322;-33.900;151.170;2022-09-12T01:43:51;2.65;;;1.05;;
16426;SDS011;8322;-33.900;151.170;2022-09-12T01:46:29;1.65;;;0.90;;
16426;SDS011;8322;-33.900;151.170;2022-09-12T01:49:00;2.25;;;1.10;;
16426;SDS011;8322;-33.900;151.170;2022-09-12T01:51:31;2.75;;;0.88;;
16426;SDS011;8322;-33.900;151.170;2022-09-12T01:54:05;0.85;;;0.68;;
16426;SDS011;8322;-33.900;151.170;2022-09-12T01:56:37;3.33;;;0.80;;
16426;SDS011;8322;-33.900;151.170;2022-09-12T01:59:09;1.67;;;0.60;;
16426;SDS011;8322;-33.900;151.170;2022-09-12T02:01:42;1.35;;;0.50;;
16426;SDS011;8322;-33.900;151.170;2022-09-12T02:04:15;1.00;;;0.55;;
16426;SDS011;8322;-33.900;151.170;2022-09-12T02:06:47;2.03;;;0.60;;
16426;SDS011;8322;-33.900;151.170;2022-09-12T02:09:18;1.50;;;1.00;;
16426;SDS011;8322;-33.900;151.170;2022-09-12T02:11:49;0.60;;;0.55;;
16426;SDS011;8322;-33.900;151.170;2022-09-12T02:14:21;1.33;;;0.63;;
16426;SDS011;8322;-33.900;151.170;2022-09-12T02:16:54;2.08;;;0.60;;
16426;SDS011;8322;-33.900;151.170;2022-09-12T02:19:26;1.60;;;0.45;;
16426;SDS011;8322;-33.900;151.170;2022-09-12T02:21:58;0.73;;;0.50;;
16426;SDS011;8322;-33.900;151.170;2022-09-12T02:24:28;1.23;;;0.80;;
16426;SDS011;8322;-33.900;151.170;2022-09-12T02:27:00;0.47;;;0.40;;
16426;SDS011;8322;-33.900;151.170;2022-09-12T02:29:31;3.38;;;0.95;;
16426;SDS011;8322;-33.900;151.170;2022-09-12T02:32:03;2.60;;;0.95;;
16426;SDS011;8322;-33.900;151.170;2022-09-12T02:34:36;0.77;;;0.50;;
16426;SDS011;8322;-33.900;151.170;2022-09-12T02:37:11;2.20;;;0.60;;
16426;SDS011;8322;-33.900;151.170;2022-09-12T02:39:44;3.55;;;0.60;;
16426;SDS011;8322;-33.900;151.170;2022-09-12T02:42:14;2.30;;;0.70;;
16426;SDS011;8322;-33.900;151.170;2022-09-12T02:44:43;4.57;;;2.42;;
16426;SDS011;8322;-33.900;151.170;2022-09-12T02:47:16;1.23;;;0.80;;
16426;SDS011;8322;-33.900;151.170;2022-09-12T02:49:46;1.35;;;0.77;;
16426;SDS011;8322;-33.900;151.170;2022-09-12T02:52:16;1.63;;;0.68;;
16426;SDS011;8322;-33.900;151.170;2022-09-12T02:54:46;2.28;;;0.70;;
16426;SDS011;8322;-33.900;151.170;2022-09-12T02:57:17;1.02;;;0.60;;
16426;SDS011;8322;-33.900;151.170;2022-09-12T02:59:47;2.08;;;0.70;;
16426;SDS011;8322;-33.900;151.170;2022-09-12T03:02:25;3.47;;;0.60;;
16426;SDS011;8322;-33.900;151.170;2022-09-12T03:05:05;1.58;;;0.73;;
16426;SDS011;8322;-33.900;151.170;2022-09-12T03:07:43;2.50;;;0.60;;
16426;SDS011;8322;-33.900;151.170;2022-09-12T03:10:15;1.50;;;0.60;;
16426;SDS011;8322;-33.900;151.170;2022-09-12T03:12:51;2.58;;;0.63;;
16426;SDS011;8322;-33.900;151.170;2022-09-12T03:15:27;2.13;;;1.00;;
16426;SDS011;8322;-33.900;151.170;2022-09-12T03:18:05;2.45;;;0.57;;
16426;SDS011;8322;-33.900;151.170;2022-09-12T03:20:40;1.40;;;0.50;;
16426;SDS011;8322;-33.900;151.170;2022-09-12T03:23:14;2.40;;;0.63;;
16426;SDS011;8322;-33.900;151.170;2022-09-12T03:25:47;0.73;;;0.50;;
16426;SDS011;8322;-33.900;151.170;2022-09-12T03:28:17;3.03;;;0.55;;
16426;SDS011;8322;-33.900;151.170;2022-09-12T03:30:48;1.23;;;0.60;;
16426;SDS011;8322;-33.900;151.170;2022-09-12T03:33:22;0.55;;;0.40;;
16426;SDS011;8322;-33.900;151.170;2022-09-12T03:35:52;2.05;;;0.63;;
16426;SDS011;8322;-33.900;151.170;2022-09-12T03:38:22;1.42;;;0.75;;
16426;SDS011;8322;-33.900;151.170;2022-09-12T03:40:51;1.20;;;0.70;;
16426;SDS011;8322;-33.900;151.170;2022-09-12T03:43:21;1.63;;;0.60;;
16426;SDS011;8322;-33.900;151.170;2022-09-12T03:45:51;2.28;;;0.80;;
16426;SDS011;8322;-33.900;151.170;2022-09-12T03:48:22;1.60;;;0.70;;
16426;SDS011;8322;-33.900;151.170;2022-09-12T03:50:52;0.93;;;0.60;;
16426;SDS011;8322;-33.900;151.170;2022-09-12T03:53:22;2.63;;;0.70;;
16426;SDS011;8322;-33.900;151.170;2022-09-12T03:55:52;2.10;;;0.75;;
16426;SDS011;8322;-33.900;151.170;2022-09-12T03:58:22;0.93;;;0.70;;
16426;SDS011;8322;-33.900;151.170;2022-09-12T04:00:51;2.85;;;0.70;;
16426;SDS011;8322;-33.900;151.170;2022-09-12T04:03:23;1.17;;;0.70;;
16426;SDS011;8322;-33.900;151.170;2022-09-12T04:05:56;0.77;;;0.68;;
16426;SDS011;8322;-33.900;151.170;2022-09-12T04:08:25;2.55;;;0.70;;
16426;SDS011;8322;-33.900;151.170;2022-09-12T04:11:01;1.67;;;0.57;;
16426;SDS011;8322;-33.900;151.170;2022-09-12T04:13:31;2.22;;;0.60;;
16426;SDS011;8322;-33.900;151.170;2022-09-12T04:16:01;3.00;;;0.93;;
16426;SDS011;8322;-33.900;151.170;2022-09-12T04:18:33;0.93;;;0.60;;
16426;SDS011;8322;-33.900;151.170;2022-09-12T04:21:03;0.57;;;0.55;;
16426;SDS011;8322;-33.900;151.170;2022-09-12T04:23:34;1.70;;;0.60;;
16426;SDS011;8322;-33.900;151.170;2022-09-12T04:26:04;1.85;;;0.55;;
16426;SDS011;8322;-33.900;151.170;2022-09-12T04:28:34;2.08;;;0.80;;
16426;SDS011;8322;-33.900;151.170;2022-09-12T04:31:05;1.65;;;0.80;;
16426;SDS011;8322;-33.900;151.170;2022-09-12T04:33:37;1.35;;;0.70;;
16426;SDS011;8322;-33.900;151.170;2022-09-12T04:36:07;1.08;;;0.63;;
16426;SDS011;8322;-33.900;151.170;2022-09-12T04:38:37;1.90;;;0.73;;
16426;SDS011;8322;-33.900;151.170;2022-09-12T04:41:10;1.15;;;0.85;;
16426;SDS011;8322;-33.900;151.170;2022-09-12T04:43:40;2.58;;;0.70;;
16426;SDS011;8322;-33.900;151.170;2022-09-12T04:46:11;2.83;;;0.60;;
16426;SDS011;8322;-33.900;151.170;2022-09-12T04:48:43;1.40;;;1.00;;
16426;SDS011;8322;-33.900;151.170;2022-09-12T04:51:14;0.80;;;0.68;;
16426;SDS011;8322;-33.900;151.170;2022-09-12T04:53:46;1.95;;;0.70;;
16426;SDS011;8322;-33.900;151.170;2022-09-12T04:56:16;2.85;;;0.60;;
16426;SDS011;8322;-33.900;151.170;2022-09-12T04:58:48;1.45;;;0.60;;
16426;SDS011;8322;-33.900;151.170;2022-09-12T05:01:18;1.98;;;0.50;;
16426;SDS011;8322;-33.900;151.170;2022-09-12T05:03:50;3.55;;;0.82;;
16426;SDS011;8322;-33.900;151.170;2022-09-12T05:06:21;1.70;;;0.60;;
16426;SDS011;8322;-33.900;151.170;2022-09-12T05:08:51;1.77;;;0.52;;
16426;SDS011;8322;-33.900;151.170;2022-09-12T05:11:21;0.85;;;0.50;;
16426;SDS011;8322;-33.900;151.170;2022-09-12T05:13:51;0.82;;;0.40;;
16426;SDS011;8322;-33.900;151.170;2022-09-12T05:16:21;1.63;;;0.60;;
16426;SDS011;8322;-33.900;151.170;2022-09-12T05:18:54;2.55;;;0.70;;
16426;SDS011;8322;-33.900;151.170;2022-09-12T05:21:24;2.35;;;0.77;;
16426;SDS011;8322;-33.900;151.170;2022-09-12T05:23:54;1.05;;;0.70;;
16426;SDS011;8322;-33.900;151.170;2022-09-12T05:26:24;1.15;;;0.60;;
16426;SDS011;8322;-33.900;151.170;2022-09-12T05:28:55;0.75;;;0.70;;
16426;SDS011;8322;-33.900;151.170;2022-09-12T05:31:25;2.33;;;0.60;;
16426;SDS011;8322;-33.900;151.170;2022-09-12T05:33:57;1.45;;;0.60;;
16426;SDS011;8322;-33.900;151.170;2022-09-12T05:36:27;1.42;;;0.70;;
16426;SDS011;8322;-33.900;151.170;2022-09-12T05:38:57;0.77;;;0.50;;
16426;SDS011;8322;-33.900;151.170;2022-09-12T05:41:28;2.58;;;0.77;;
16426;SDS011;8322;-33.900;151.170;2022-09-12T05:43:58;1.13;;;0.70;;
16426;SDS011;8322;-33.900;151.170;2022-09-12T05:46:30;0.80;;;0.70;;
16426;SDS011;8322;-33.900;151.170;2022-09-12T05:49:03;0.70;;;0.60;;
16426;SDS011;8322;-33.900;151.170;2022-09-12T05:51:34;1.73;;;0.60;;
16426;SDS011;8322;-33.900;151.170;2022-09-12T05:54:04;2.85;;;0.70;;
16426;SDS011;8322;-33.900;151.170;2022-09-12T05:56:36;3.22;;;0.60;;
16426;SDS011;8322;-33.900;151.170;2022-09-12T05:59:06;0.90;;;0.60;;
16426;SDS011;8322;-33.900;151.170;2022-09-12T06:01:37;1.20;;;0.57;;
16426;SDS011;8322;-33.900;151.170;2022-09-12T06:04:08;1.58;;;0.60;;
16426;SDS011;8322;-33.900;151.170;2022-09-12T06:06:39;0.93;;;0.60;;
16426;SDS011;8322;-33.900;151.170;2022-09-12T06:09:10;2.17;;;0.60;;
16426;SDS011;8322;-33.900;151.170;2022-09-12T06:11:40;3.70;;;1.35;;
16426;SDS011;8322;-33.900;151.170;2022-09-12T06:14:10;1.90;;;0.95;;
16426;SDS011;8322;-33.900;151.170;2022-09-12T06:16:40;1.15;;;0.60;;
16426;SDS011;8322;-33.900;151.170;2022-09-12T06:19:14;1.70;;;0.70;;
16426;SDS011;8322;-33.900;151.170;2022-09-12T06:21:44;1.38;;;0.60;;
16426;SDS011;8322;-33.900;151.170;2022-09-12T06:24:14;0.60;;;0.60;;
16426;SDS011;8322;-33.900;151.170;2022-09-12T06:26:44;4.88;;;0.80;;
16426;SDS011;8322;-33.900;151.170;2022-09-12T06:29:14;2.28;;;0.90;;
16426;SDS011;8322;-33.900;151.170;2022-09-12T06:31:44;1.65;;;0.70;;
16426;SDS011;8322;-33.900;151.170;2022-09-12T06:34:16;1.42;;;0.82;;
16426;SDS011;8322;-33.900;151.170;2022-09-12T06:36:46;1.90;;;0.85;;
16426;SDS011;8322;-33.900;151.170;2022-09-12T06:39:16;2.40;;;0.70;;
16426;SDS011;8322;-33.900;151.170;2022-09-12T06:41:47;3.42;;;0.90;;
16426;SDS011;8322;-33.900;151.170;2022-09-12T06:44:17;1.70;;;0.90;;
16426;SDS011;8322;-33.900;151.170;2022-09-12T06:46:47;1.88;;;0.80;;
16426;SDS011;8322;-33.900;151.170;2022-09-12T06:49:20;4.97;;;3.03;;
16426;SDS011;8322;-33.900;151.170;2022-09-12T06:51:50;1.15;;;0.70;;
16426;SDS011;8322;-33.900;151.170;2022-09-12T06:54:20;2.53;;;0.90;;
16426;SDS011;8322;-33.900;151.170;2022-09-12T06:56:51;2.00;;;0.95;;
16426;SDS011;8322;-33.900;151.170;2022-09-12T06:59:21;2.03;;;1.00;;
16426;SDS011;8322;-33.900;151.170;2022-09-12T07:01:51;1.92;;;1.13;;
16426;SDS011;8322;-33.900;151.170;2022-09-12T07:04:23;3.70;;;1.10;;
16426;SDS011;8322;-33.900;151.170;2022-09-12T07:06:53;0.93;;;0.60;;
16426;SDS011;8322;-33.900;151.170;2022-09-12T07:09:22;1.00;;;0.70;;
16426;SDS011;8322;-33.900;151.170;2022-09-12T07:11:52;1.75;;;0.60;;
16426;SDS011;8322;-33.900;151.170;2022-09-12T07:14:22;1.20;;;0.60;;
16426;SDS011;8322;-33.900;151.170;2022-09-12T07:16:53;1.58;;;0.70;;
16426;SDS011;8322;-33.900;151.170;2022-09-12T07:19:24;3.25;;;0.95;;
16426;SDS011;8322;-33.900;151.170;2022-09-12T07:21:54;1.58;;;0.65;;
16426;SDS011;8322;-33.900;151.170;2022-09-12T07:24:24;2.92;;;0.70;;
16426;SDS011;8322;-33.900;151.170;2022-09-12T07:26:54;3.33;;;1.13;;
16426;SDS011;8322;-33.900;151.170;2022-09-12T07:29:24;2.05;;;0.70;;
16426;SDS011;8322;-33.900;151.170;2022-09-12T07:31:53;1.58;;;0.70;;
16426;SDS011;8322;-33.900;151.170;2022-09-12T07:34:25;3.67;;;1.00;;
16426;SDS011;8322;-33.900;151.170;2022-09-12T07:36:55;2.20;;;1.25;;
16426;SDS011;8322;-33.900;151.170;2022-09-12T07:39:25;1.88;;;0.90;;
16426;SDS011;8322;-33.900;151.170;2022-09-12T07:41:54;3.28;;;1.00;;
16426;SDS011;8322;-33.900;151.170;2022-09-12T07:44:25;3.25;;;1.00;;
16426;SDS011;8322;-33.900;151.170;2022-09-12T07:46:55;2.50;;;0.98;;
16426;SDS011;8322;-33.900;151.170;2022-09-12T07:49:26;0.88;;;0.75;;
16426;SDS011;8322;-33.900;151.170;2022-09-12T07:51:56;3.92;;;1.30;;
16426;SDS011;8322;-33.900;151.170;2022-09-12T07:54:26;1.70;;;1.17;;
16426;SDS011;8322;-33.900;151.170;2022-09-12T07:56:56;2.38;;;1.55;;
16426;SDS011;8322;-33.900;151.170;2022-09-12T07:59:26;6.03;;;2.33;;
16426;SDS011;8322;-33.900;151.170;2022-09-12T08:01:56;4.68;;;2.80;;
16426;SDS011;8322;-33.900;151.170;2022-09-12T08:04:28;4.85;;;2.65;;
16426;SDS011;8322;-33.900;151.170;2022-09-12T08:06:57;4.10;;;2.10;;
16426;SDS011;8322;-33.900;151.170;2022-09-12T08:09:27;2.63;;;1.67;;
16426;SDS011;8322;-33.900;151.170;2022-09-12T08:11:57;2.63;;;1.63;;
16426;SDS011;8322;-33.900;151.170;2022-09-12T08:14:27;2.80;;;1.50;;
16426;SDS011;8322;-33.900;151.170;2022-09-12T08:16:57;2.30;;;1.67;;
16426;SDS011;8322;-33.900;151.170;2022-09-12T08:19:28;3.33;;;1.73;;
16426;SDS011;8322;-33.900;151.170;2022-09-12T08:21:58;9.45;;;6.45;;
16426;SDS011;8322;-33.900;151.170;2022-09-12T08:24:29;8.27;;;5.75;;
16426;SDS011;8322;-33.900;151.170;2022-09-12T08:26:59;6.43;;;3.67;;
16426;SDS011;8322;-33.900;151.170;2022-09-12T08:29:29;13.32;;;7.30;;
16426;SDS011;8322;-33.900;151.170;2022-09-12T08:31:59;20.13;;;12.98;;
16426;SDS011;8322;-33.900;151.170;2022-09-12T08:34:31;21.35;;;14.55;;
16426;SDS011;8322;-33.900;151.170;2022-09-12T08:37:00;19.88;;;12.38;;
16426;SDS011;8322;-33.900;151.170;2022-09-12T08:39:30;20.10;;;10.60;;
16426;SDS011;8322;-33.900;151.170;2022-09-12T08:42:00;13.20;;;7.13;;
16426;SDS011;8322;-33.900;151.170;2022-09-12T08:44:39;7.88;;;3.60;;
16426;SDS011;8322;-33.900;151.170;2022-09-12T08:47:22;6.63;;;4.10;;
16426;SDS011;8322;-33.900;151.170;2022-09-12T08:49:58;6.30;;;3.83;;
16426;SDS011;8322;-33.900;151.170;2022-09-12T08:52:30;4.43;;;3.00;;
16426;SDS011;8322;-33.900;151.170;2022-09-12T08:55:02;6.68;;;2.40;;
16426;SDS011;8322;-33.900;151.170;2022-09-12T08:57:33;9.77;;;4.25;;
16426;SDS011;8322;-33.900;151.170;2022-09-12T09:00:03;8.27;;;4.40;;
16426;SDS011;8322;-33.900;151.170;2022-09-12T09:05:31;8.00;;;3.13;;
16426;SDS011;8322;-33.900;151.170;2022-09-12T09:10:55;4.70;;;2.92;;
16426;SDS011;8322;-33.900;151.170;2022-09-12T09:13:32;6.22;;;3.67;;
16426;SDS011;8322;-33.900;151.170;2022-09-12T09:16:23;4.60;;;2.90;;
16426;SDS011;8322;-33.900;151.170;2022-09-12T09:18:56;5.10;;;2.65;;
16426;SDS011;8322;-33.900;151.170;2022-09-12T09:21:39;4.75;;;2.97;;
16426;SDS011;8322;-33.900;151.170;2022-09-12T09:24:10;8.27;;;3.00;;
16426;SDS011;8322;-33.900;151.170;2022-09-12T09:26:43;4.15;;;2.40;;
16426;SDS011;8322;-33.900;151.170;2022-09-12T09:29:15;7.95;;;3.10;;
16426;SDS011;8322;-33.900;151.170;2022-09-12T09:31:46;4.78;;;2.90;;
16426;SDS011;8322;-33.900;151.170;2022-09-12T09:34:18;7.18;;;3.67;;
16426;SDS011;8322;-33.900;151.170;2022-09-12T09:36:51;8.48;;;3.75;;
16426;SDS011;8322;-33.900;151.170;2022-09-12T09:42:16;6.68;;;2.95;;
16426;SDS011;8322;-33.900;151.170;2022-09-12T09:44:47;5.07;;;2.60;;
16426;SDS011;8322;-33.900;151.170;2022-09-12T09:47:18;7.00;;;2.95;;
16426;SDS011;8322;-33.900;151.170;2022-09-12T09:49:48;7.22;;;3.05;;
16426;SDS011;8322;-33.900;151.170;2022-09-12T09:52:23;5.45;;;2.90;;
16426;SDS011;8322;-33.900;151.170;2022-09-12T09:54:54;4.25;;;2.83;;
16426;SDS011;8322;-33.900;151.170;2022-09-12T09:57:37;4.75;;;2.55;;
16426;SDS011;8322;-33.900;151.170;2022-09-12T10:03:01;5.55;;;2.70;;
16426;SDS011;8322;-33.900;151.170;2022-09-12T10:05:32;5.85;;;3.28;;
16426;SDS011;8322;-33.900;151.170;2022-09-12T10:08:05;5.13;;;3.28;;
16426;SDS011;8322;-33.900;151.170;2022-09-12T10:10:35;7.32;;;3.30;;
16426;SDS011;8322;-33.900;151.170;2022-09-12T10:13:06;5.38;;;3.00;;
16426;SDS011;8322;-33.900;151.170;2022-09-12T10:15:36;4.40;;;2.30;;
16426;SDS011;8322;-33.900;151.170;2022-09-12T10:18:06;3.05;;;1.80;;
16426;SDS011;8322;-33.900;151.170;2022-09-12T10:20:36;4.72;;;1.60;;
16426;SDS011;8322;-33.900;151.170;2022-09-12T10:23:18;5.07;;;2.13;;
16426;SDS011;8322;-33.900;151.170;2022-09-12T10:25:52;3.38;;;2.03;;
16426;SDS011;8322;-33.900;151.170;2022-09-12T10:28:22;4.50;;;2.20;;
16426;SDS011;8322;-33.900;151.170;2022-09-12T10:30:53;2.35;;;1.60;;
16426;SDS011;8322;-33.900;151.170;2022-09-12T10:33:27;3.17;;;1.70;;
16426;SDS011;8322;-33.900;151.170;2022-09-12T10:36:01;4.68;;;1.85;;
16426;SDS011;8322;-33.900;151.170;2022-09-12T10:38:33;4.57;;;1.92;;
16426;SDS011;8322;-33.900;151.170;2022-09-12T10:41:03;3.60;;;1.77;;
16426;SDS011;8322;-33.900;151.170;2022-09-12T10:43:34;2.35;;;1.52;;
16426;SDS011;8322;-33.900;151.170;2022-09-12T10:51:38;3.55;;;1.90;;
16426;SDS011;8322;-33.900;151.170;2022-09-12T10:54:10;3.05;;;2.00;;
16426;SDS011;8322;-33.900;151.170;2022-09-12T10:56:42;3.65;;;1.80;;
16426;SDS011;8322;-33.900;151.170;2022-09-12T10:59:18;3.15;;;1.95;;
16426;SDS011;8322;-33.900;151.170;2022-09-12T11:01:53;4.45;;;2.17;;
16426;SDS011;8322;-33.900;151.170;2022-09-12T11:04:28;5.78;;;2.30;;
16426;SDS011;8322;-33.900;151.170;2022-09-12T11:07:07;3.17;;;1.85;;
16426;SDS011;8322;-33.900;151.170;2022-09-12T11:09:41;3.38;;;2.00;;
16426;SDS011;8322;-33.900;151.170;2022-09-12T11:12:14;4.60;;;2.05;;
16426;SDS011;8322;-33.900;151.170;2022-09-12T11:14:57;4.13;;;2.20;;
16426;SDS011;8322;-33.900;151.170;2022-09-12T11:17:32;3.97;;;1.80;;
16426;SDS011;8322;-33.900;151.170;2022-09-12T11:23:01;4.32;;;2.45;;
16426;SDS011;8322;-33.900;151.170;2022-09-12T11:25:38;4.60;;;2.33;;
16426;SDS011;8322;-33.900;151.170;2022-09-12T11:28:24;2.08;;;1.60;;
16426;SDS011;8322;-33.900;151.170;2022-09-12T11:31:01;2.08;;;1.77;;
16426;SDS011;8322;-33.900;151.170;2022-09-12T11:33:38;2.35;;;1.70;;
16426;SDS011;8322;-33.900;151.170;2022-09-12T11:36:13;3.38;;;1.50;;
16426;SDS011;8322;-33.900;151.170;2022-09-12T11:38:51;2.95;;;1.85;;
16426;SDS011;8322;-33.900;151.170;2022-09-12T11:41:26;3.00;;;1.60;;
16426;SDS011;8322;-33.900;151.170;2022-09-12T11:44:00;2.97;;;1.35;;
16426;SDS011;8322;-33.900;151.170;2022-09-12T11:46:32;1.90;;;1.13;;
16426;SDS011;8322;-33.900;151.170;2022-09-12T11:49:09;1.17;;;1.00;;
16426;SDS011;8322;-33.900;151.170;2022-09-12T11:51:43;2.55;;;1.25;;
16426;SDS011;8322;-33.900;151.170;2022-09-12T11:54:16;2.10;;;1.30;;
16426;SDS011;8322;-33.900;151.170;2022-09-12T11:56:52;2.08;;;1.05;;
16426;SDS011;8322;-33.900;151.170;2022-09-12T11:59:27;1.52;;;1.08;;
16426;SDS011;8322;-33.900;151.170;2022-09-12T12:01:59;4.68;;;1.40;;
16426;SDS011;8322;-33.900;151.170;2022-09-12T12:04:33;3.88;;;1.17;;
16426;SDS011;8322;-33.900;151.170;2022-09-12T12:07:05;2.83;;;1.20;;
16426;SDS011;8322;-33.900;151.170;2022-09-12T12:09:35;2.33;;;1.10;;
16426;SDS011;8322;-33.900;151.170;2022-09-12T12:12:07;2.03;;;1.25;;
16426;SDS011;8322;-33.900;151.170;2022-09-12T12:14:47;2.33;;;1.08;;
16426;SDS011;8322;-33.900;151.170;2022-09-12T12:17:20;2.67;;;1.10;;
16426;SDS011;8322;-33.900;151.170;2022-09-12T12:19:56;1.20;;;1.10;;
16426;SDS011;8322;-33.900;151.170;2022-09-12T12:22:27;1.02;;;0.93;;
16426;SDS011;8322;-33.900;151.170;2022-09-12T12:25:07;1.40;;;0.98;;
16426;SDS011;8322;-33.900;151.170;2022-09-12T12:27:54;1.15;;;1.00;;
16426;SDS011;8322;-33.900;151.170;2022-09-12T12:36:03;1.40;;;1.08;;
16426;SDS011;8322;-33.900;151.170;2022-09-12T12:38:34;3.45;;;0.98;;
16426;SDS011;8322;-33.900;151.170;2022-09-12T12:43:56;1.30;;;1.08;;
16426;SDS011;8322;-33.900;151.170;2022-09-12T12:46:26;0.98;;;0.80;;
16426;SDS011;8322;-33.900;151.170;2022-09-12T12:49:07;0.80;;;0.73;;
16426;SDS011;8322;-33.900;151.170;2022-09-12T12:51:39;1.00;;;0.80;;
16426;SDS011;8322;-33.900;151.170;2022-09-12T12:54:29;0.82;;;0.70;;
16426;SDS011;8322;-33.900;151.170;2022-09-12T12:57:00;1.35;;;0.80;;
16426;SDS011;8322;-33.900;151.170;2022-09-12T12:59:33;1.45;;;0.93;;
16426;SDS011;8322;-33.900;151.170;2022-09-12T13:02:03;1.92;;;1.02;;
16426;SDS011;8322;-33.900;151.170;2022-09-12T13:04:33;1.42;;;0.85;;
16426;SDS011;8322;-33.900;151.170;2022-09-12T13:07:04;4.22;;;0.98;;
16426;SDS011;8322;-33.900;151.170;2022-09-12T13:09:43;1.15;;;1.00;;
16426;SDS011;8322;-33.900;151.170;2022-09-12T13:12:17;1.40;;;1.00;;
16426;SDS011;8322;-33.900;151.170;2022-09-12T13:14:54;1.52;;;0.90;;
16426;SDS011;8322;-33.900;151.170;2022-09-12T13:17:26;2.47;;;1.10;;
16426;SDS011;8322;-33.900;151.170;2022-09-12T13:20:06;1.10;;;1.00;;
16426;SDS011;8322;-33.900;151.170;2022-09-12T13:22:42;1.33;;;1.00;;
16426;SDS011;8322;-33.900;151.170;2022-09-12T13:25:20;2.35;;;0.70;;
16426;SDS011;8322;-33.900;151.170;2022-09-12T13:27:59;2.38;;;0.98;;
16426;SDS011;8322;-33.900;151.170;2022-09-12T13:30:32;1.88;;;1.00;;
16426;SDS011;8322;-33.900;151.170;2022-09-12T13:33:08;1.30;;;1.00;;
16426;SDS011;8322;-33.900;151.170;2022-09-12T13:35:41;2.88;;;1.08;;
16426;SDS011;8322;-33.900;151.170;2022-09-12T13:38:11;1.50;;;0.90;;
16426;SDS011;8322;-33.900;151.170;2022-09-12T13:40:50;1.30;;;0.80;;
16426;SDS011;8322;-33.900;151.170;2022-09-12T13:43:25;1.63;;;1.02;;
16426;SDS011;8322;-33.900;151.170;2022-09-12T13:46:00;2.63;;;1.17;;
16426;SDS011;8322;-33.900;151.170;2022-09-12T13:48:29;1.33;;;1.00;;
16426;SDS011;8322;-33.900;151.170;2022-09-12T13:50:59;1.40;;;1.02;;
16426;SDS011;8322;-33.900;151.170;2022-09-12T13:53:31;2.25;;;1.00;;
16426;SDS011;8322;-33.900;151.170;2022-09-12T13:56:03;1.88;;;1.10;;
16426;SDS011;8322;-33.900;151.170;2022-09-12T13:58:33;1.58;;;1.02;;
16426;SDS011;8322;-33.900;151.170;2022-09-12T14:01:06;2.10;;;1.20;;
16426;SDS011;8322;-33.900;151.170;2022-09-12T14:03:39;2.20;;;1.15;;
16426;SDS011;8322;-33.900;151.170;2022-09-12T14:06:25;2.38;;;1.27;;
16426;SDS011;8322;-33.900;151.170;2022-09-12T14:08:55;2.08;;;1.23;;
16426;SDS011;8322;-33.900;151.170;2022-09-12T14:11:27;2.90;;;1.20;;
16426;SDS011;8322;-33.900;151.170;2022-09-12T14:13:58;1.10;;;1.00;;
16426;SDS011;8322;-33.900;151.170;2022-09-12T14:16:32;3.08;;;1.23;;
16426;SDS011;8322;-33.900;151.170;2022-09-12T14:19:07;1.55;;;0.95;;
16426;SDS011;8322;-33.900;151.170;2022-09-12T14:21:37;3.00;;;1.30;;
16426;SDS011;8322;-33.900;151.170;2022-09-12T14:24:08;2.10;;;1.20;;
16426;SDS011;8322;-33.900;151.170;2022-09-12T14:26:40;1.95;;;1.13;;
16426;SDS011;8322;-33.900;151.170;2022-09-12T14:29:12;3.70;;;1.20;;
16426;SDS011;8322;-33.900;151.170;2022-09-12T14:31:44;2.58;;;1.30;;
16426;SDS011;8322;-33.900;151.170;2022-09-12T14:34:14;1.15;;;1.00;;
16426;SDS011;8322;-33.900;151.170;2022-09-12T14:36:45;2.70;;;1.00;;
16426;SDS011;8322;-33.900;151.170;2022-09-12T14:39:16;2.33;;;1.10;;
16426;SDS011;8322;-33.900;151.170;2022-09-12T14:41:49;1.70;;;1.00;;
16426;SDS011;8322;-33.900;151.170;2022-09-12T14:44:21;1.70;;;1.00;;
16426;SDS011;8322;-33.900;151.170;2022-09-12T14:46:53;1.10;;;1.00;;
16426;SDS011;8322;-33.900;151.170;2022-09-12T14:49:24;2.08;;;1.13;;
16426;SDS011;8322;-33.900;151.170;2022-09-12T14:51:56;1.08;;;0.98;;
16426;SDS011;8322;-33.900;151.170;2022-09-12T14:54:36;1.27;;;1.00;;
16426;SDS011;8322;-33.900;151.170;2022-09-12T15:00:04;1.58;;;0.90;;
16426;SDS011;8322;-33.900;151.170;2022-09-12T15:02:35;1.20;;;1.00;;
16426;SDS011;8322;-33.900;151.170;2022-09-12T15:05:16;1.60;;;1.25;;
16426;SDS011;8322;-33.900;151.170;2022-09-12T15:07:54;2.55;;;0.98;;
16426;SDS011;8322;-33.900;151.170;2022-09-12T15:10:24;1.10;;;1.00;;
16426;SDS011;8322;-33.900;151.170;2022-09-12T15:13:12;1.55;;;0.95;;
16426;SDS011;8322;-33.900;151.170;2022-09-12T15:15:42;1.10;;;1.00;;
16426;SDS011;8322;-33.900;151.170;2022-09-12T15:18:14;1.33;;;0.93;;
16426;SDS011;8322;-33.900;151.170;2022-09-12T15:20:45;0.80;;;0.80;;
16426;SDS011;8322;-33.900;151.170;2022-09-12T15:23:17;0.93;;;0.80;;
16426;SDS011;8322;-33.900;151.170;2022-09-12T15:25:47;1.17;;;0.77;;
16426;SDS011;8322;-33.900;151.170;2022-09-12T15:28:18;0.95;;;0.85;;
16426;SDS011;8322;-33.900;151.170;2022-09-12T15:30:48;2.70;;;0.98;;